Time;durP1;ratioP1;P1;durP2;ratioP2;P2;SDS_P1;SDS_P2;PMS_P1;PMS_P2;Temp;Humidity;BMP_temperature;BMP_pressure;BME280_temperature;BME280_humidity;BME280_pressure;Samples;Min_cycle;Max_cycle;Signal;HPM_P1;HPM_P2
2022/01/26 00:07:14;;;;;;;91.90;22.67;;;3.20;99.90;;;;;;5024059;28;20706;-79
2022/01/26 00:09:40;;;;;;;101.57;24.83;;;3.30;99.90;;;;;;5005450;28;20266;-79
2022/01/26 00:12:06;;;;;;;96.40;23.83;;;3.30;99.90;;;;;;5004975;28;20704;-79
2022/01/26 00:14:32;;;;;;;97.70;24.40;;;3.30;99.90;;;;;;5007784;28;20191;-79
2022/01/26 00:17:00;;;;;;;94.33;22.73;;;3.40;99.90;;;;;;5006301;28;20277;-79
2022/01/26 00:19:33;;;;;;;86.93;23.23;;;3.20;99.90;;;;;;5002753;28;20770;-79
2022/01/26 00:21:59;;;;;;;85.13;22.47;;;3.30;99.90;;;;;;5001880;28;20210;-79
2022/01/26 00:29:33;;;;;;;88.27;22.33;;;3.30;99.90;;;;;;5018828;28;20198;-79
2022/01/26 00:33:06;;;;;;;99.23;23.73;;;3.20;99.90;;;;;;5001458;28;20217;-79
2022/01/26 00:40:39;;;;;;;89.63;22.40;;;3.30;99.90;;;;;;5020868;28;20244;-79
2022/01/26 00:43:22;;;;;;;97.77;21.57;;;3.30;99.90;;;;;;4999009;28;20224;-80
2022/01/26 00:45:54;;;;;;;88.37;22.67;;;3.20;99.90;;;;;;4998935;28;20289;-80
2022/01/26 00:48:21;;;;;;;95.47;23.30;;;3.20;99.90;;;;;;4998926;28;20182;-79
2022/01/26 00:50:51;;;;;;;90.90;21.70;;;3.20;99.90;;;;;;4998287;28;20214;-80
2022/01/26 00:53:23;;;;;;;102.67;22.87;;;3.20;99.90;;;;;;4999793;28;20182;-79
2022/01/26 00:55:49;;;;;;;98.97;23.87;;;3.30;99.90;;;;;;5017788;28;20198;-79
2022/01/26 00:58:15;;;;;;;98.40;22.77;;;3.20;99.90;;;;;;5000183;28;20242;-79
2022/01/26 01:00:41;;;;;;;103.60;23.53;;;3.20;99.90;;;;;;4998667;28;20217;-79
2022/01/26 01:03:07;;;;;;;103.67;24.97;;;3.20;99.90;;;;;;4999078;28;20178;-79
2022/01/26 01:05:38;;;;;;;95.40;22.70;;;3.20;99.90;;;;;;4998717;28;20199;-78
2022/01/26 01:08:10;;;;;;;97.37;22.93;;;3.20;99.90;;;;;;4998492;28;20181;-79
2022/01/26 01:10:35;;;;;;;95.50;23.27;;;3.20;99.90;;;;;;4999672;28;20198;-79
2022/01/26 01:13:01;;;;;;;78.30;20.93;;;3.20;99.90;;;;;;4999927;28;20702;-79
2022/01/26 01:15:29;;;;;;;100.90;24.90;;;3.10;99.90;;;;;;4998191;28;20280;-78
2022/01/26 01:18:14;;;;;;;102.20;24.77;;;3.20;99.90;;;;;;4998091;28;20180;-79
2022/01/26 01:31:15;;;;;;;98.80;24.77;;;3.10;99.90;;;;;;5015285;28;20198;-80
2022/01/26 01:33:45;;;;;;;104.70;25.20;;;3.10;99.90;;;;;;4996586;28;20268;-79
2022/01/26 01:36:12;;;;;;;95.47;23.73;;;3.10;99.90;;;;;;4997115;28;20257;-79
2022/01/26 01:38:42;;;;;;;116.13;26.10;;;3.10;99.90;;;;;;4998119;28;20257;-79
2022/01/26 01:41:09;;;;;;;104.67;24.63;;;3.10;99.90;;;;;;4997664;28;20186;-79
2022/01/26 01:43:35;;;;;;;109.80;25.00;;;3.10;99.90;;;;;;4997537;28;20201;-79
2022/01/26 01:46:01;;;;;;;111.00;26.43;;;3.10;99.90;;;;;;4997621;28;20668;-79
2022/01/26 01:48:29;;;;;;;101.17;25.33;;;3.10;99.90;;;;;;4996668;28;20171;-79
2022/01/26 01:50:56;;;;;;;105.80;24.77;;;3.10;99.90;;;;;;4995036;28;20203;-79
2022/01/26 01:53:38;;;;;;;108.80;26.03;;;3.20;99.90;;;;;;4995504;28;20193;-79
2022/01/26 01:56:04;;;;;;;108.57;26.30;;;3.10;99.90;;;;;;4995598;28;20194;-79
2022/01/26 01:58:30;;;;;;;111.77;26.80;;;3.10;99.90;;;;;;4995348;28;20171;-80
2022/01/26 02:00:56;;;;;;;109.33;25.07;;;3.10;99.90;;;;;;4995779;28;20305;-79
2022/01/26 02:03:23;;;;;;;110.27;25.23;;;3.00;99.90;;;;;;4995812;28;20175;-79
2022/01/26 02:05:48;;;;;;;108.30;27.57;;;3.00;99.90;;;;;;4995564;28;20305;-79
2022/01/26 02:08:14;;;;;;;97.67;24.07;;;3.00;99.90;;;;;;4995294;28;20309;-80
2022/01/26 02:10:41;;;;;;;118.60;27.10;;;3.10;99.90;;;;;;4995383;28;20640;-79
2022/01/26 02:13:26;;;;;;;107.03;26.33;;;3.10;99.90;;;;;;4995423;28;20179;-79
2022/01/26 02:16:10;;;;;;;117.73;27.43;;;3.00;99.90;;;;;;4995303;28;20281;-79
2022/01/26 02:57:08;;;;;;;105.67;23.63;;;2.80;99.90;;;;;;5018457;28;20202;-79
2022/01/26 03:04:15;;;;;;;119.27;25.53;;;2.80;99.90;;;;;;5016096;28;20158;-79
2022/01/26 03:09:30;;;;;;;121.23;27.17;;;2.90;99.90;;;;;;5016086;28;20209;-79
2022/01/26 03:11:58;;;;;;;115.17;25.97;;;2.90;99.90;;;;;;4997837;28;20221;-79
2022/01/26 03:17:00;;;;;;;120.87;26.23;;;2.90;99.90;;;;;;5015781;28;20187;-80
2022/01/26 03:35:04;;;;;;;122.93;28.97;;;2.80;99.90;;;;;;5015483;28;20143;-80
2022/01/26 03:37:37;;;;;;;136.20;29.30;;;2.80;99.90;;;;;;5000553;28;20298;-79
2022/01/26 03:40:12;;;;;;;119.77;29.87;;;2.80;99.90;;;;;;5002019;28;20198;-78
2022/01/26 03:42:37;;;;;;;125.07;28.20;;;2.80;99.90;;;;;;4999971;28;20212;-79
2022/01/26 03:45:03;;;;;;;130.53;28.63;;;2.80;99.90;;;;;;4999630;28;20225;-78
2022/01/26 03:47:29;;;;;;;141.23;29.00;;;2.80;99.90;;;;;;5000091;28;20175;-79
2022/01/26 03:49:55;;;;;;;119.53;27.33;;;2.80;99.90;;;;;;5000507;28;20561;-78
2022/01/26 03:52:21;;;;;;;129.20;28.23;;;2.80;99.90;;;;;;4999413;28;20282;-78
2022/01/26 03:54:46;;;;;;;121.30;26.70;;;2.70;99.90;;;;;;5000266;28;20270;-79
2022/01/26 03:57:12;;;;;;;125.37;28.07;;;2.80;99.90;;;;;;5000185;28;20194;-79
2022/01/26 03:59:38;;;;;;;118.67;24.83;;;2.70;99.90;;;;;;5030683;23;20221;-84
2022/01/26 04:02:04;;;;;;;130.93;28.13;;;2.80;99.90;;;;;;5019180;28;20813;-84
2022/01/26 04:04:33;;;;;;;135.10;26.37;;;2.70;99.90;;;;;;5037148;28;20571;-84
2022/01/26 04:07:00;;;;;;;128.30;27.37;;;2.70;99.90;;;;;;5018762;28;20600;-84
2022/01/26 04:09:26;;;;;;;125.97;26.73;;;2.60;99.90;;;;;;5037021;28;20177;-84
2022/01/26 04:11:52;;;;;;;112.70;24.40;;;2.70;99.90;;;;;;5037117;28;20189;-84
2022/01/26 04:14:22;;;;;;;102.77;26.23;;;2.70;99.90;;;;;;5036686;28;20649;-84
2022/01/26 04:16:48;;;;;;;123.03;25.60;;;2.60;99.90;;;;;;5017752;28;20265;-84
2022/01/26 04:19:14;;;;;;;118.90;25.23;;;2.60;99.90;;;;;;5036755;28;20608;-84
2022/01/26 04:24:20;;;;;;;122.67;27.40;;;2.60;99.90;;;;;;5037026;28;20661;-84
2022/01/26 04:29:22;;;;;;;119.20;27.03;;;2.60;99.90;;;;;;5036469;28;20189;-84
2022/01/26 04:31:47;;;;;;;117.70;27.10;;;2.50;99.90;;;;;;5019398;28;20209;-85
2022/01/26 04:34:13;;;;;;;111.17;25.60;;;2.60;99.90;;;;;;5036996;28;20193;-84
2022/01/26 04:36:49;;;;;;;125.50;28.47;;;2.60;99.90;;;;;;5037692;28;20170;-84
2022/01/26 04:39:20;;;;;;;122.63;28.67;;;2.60;99.90;;;;;;5037163;28;20708;-84
2022/01/26 04:44:21;;;;;;;122.43;27.53;;;2.60;99.90;;;;;;5037101;28;20197;-84
2022/01/26 04:46:48;;;;;;;112.03;25.70;;;2.60;99.90;;;;;;5037488;28;20249;-84
2022/01/26 04:49:13;;;;;;;129.03;28.37;;;2.60;99.90;;;;;;5037425;28;20257;-84
2022/01/26 04:51:39;;;;;;;115.73;27.37;;;2.70;99.90;;;;;;5037085;28;20681;-84
2022/01/26 04:54:04;;;;;;;123.70;30.07;;;2.60;99.90;;;;;;5019449;28;20170;-84
2022/01/26 04:56:30;;;;;;;118.50;28.53;;;2.60;99.90;;;;;;5037875;28;20176;-85
2022/01/26 04:58:55;;;;;;;124.47;28.40;;;2.60;99.90;;;;;;5019471;28;20206;-85
2022/01/26 05:01:21;;;;;;;114.90;28.37;;;2.60;99.90;;;;;;5019271;28;20178;-85
2022/01/26 05:03:47;;;;;;;117.90;28.27;;;2.60;99.90;;;;;;5019769;28;20174;-85
2022/01/26 05:06:12;;;;;;;122.63;27.93;;;2.60;99.90;;;;;;5037736;28;20593;-85
2022/01/26 05:08:38;;;;;;;115.93;28.90;;;2.50;99.90;;;;;;5038130;28;20265;-85
2022/01/26 05:11:05;;;;;;;116.57;27.23;;;2.50;99.90;;;;;;5019533;28;20201;-85
2022/01/26 05:13:31;;;;;;;117.60;26.90;;;2.50;99.90;;;;;;5020395;28;20692;-85
2022/01/26 05:15:56;;;;;;;120.63;28.57;;;2.50;99.90;;;;;;5038682;28;20174;-85
2022/01/26 05:18:24;;;;;;;112.83;28.23;;;2.50;99.90;;;;;;5038388;28;20204;-84
2022/01/26 05:20:49;;;;;;;120.70;28.47;;;2.60;99.90;;;;;;5038693;28;20170;-85
2022/01/26 05:23:15;;;;;;;117.37;29.60;;;2.60;99.90;;;;;;5019833;28;20717;-84
2022/01/26 05:25:41;;;;;;;126.67;28.50;;;2.60;99.90;;;;;;5020503;28;20625;-84
2022/01/26 05:28:06;;;;;;;124.20;30.47;;;2.50;99.90;;;;;;5020067;28;20214;-85
2022/01/26 05:30:32;;;;;;;115.67;29.73;;;2.60;99.90;;;;;;5038855;28;20178;-85
2022/01/26 05:32:57;;;;;;;122.87;30.10;;;2.50;99.90;;;;;;5039475;28;20209;-85
2022/01/26 05:35:23;;;;;;;127.70;31.87;;;2.50;99.90;;;;;;5022044;28;20223;-85
2022/01/26 05:37:49;;;;;;;128.00;29.37;;;2.50;99.90;;;;;;5021097;28;20198;-85
2022/01/26 05:40:14;;;;;;;115.13;28.73;;;2.40;99.90;;;;;;5021204;28;20170;-85
2022/01/26 05:42:41;;;;;;;126.70;30.47;;;2.50;99.90;;;;;;5022076;28;20200;-85
2022/01/26 05:45:18;;;;;;;117.97;28.97;;;2.40;99.90;;;;;;5040213;28;20166;-84
2022/01/26 05:47:44;;;;;;;121.90;30.53;;;2.50;99.90;;;;;;5040605;28;20198;-85
2022/01/26 05:50:10;;;;;;;122.53;30.17;;;2.50;99.90;;;;;;5021476;28;20184;-83
2022/01/26 05:52:35;;;;;;;125.90;30.27;;;2.50;99.90;;;;;;5026230;28;20198;-86
2022/01/26 05:55:01;;;;;;;132.37;29.53;;;2.50;99.90;;;;;;5055798;28;20237;-86
2022/01/26 05:57:26;;;;;;;135.57;32.13;;;2.50;99.90;;;;;;5047596;28;20716;-84
2022/01/26 05:59:54;;;;;;;127.53;31.00;;;2.40;99.90;;;;;;5025186;28;20189;-84
2022/01/26 06:02:19;;;;;;;131.20;30.30;;;2.40;99.90;;;;;;5041789;28;20175;-84
2022/01/26 06:04:46;;;;;;;132.83;29.77;;;2.50;99.90;;;;;;5025360;28;20174;-84
2022/01/26 06:07:11;;;;;;;124.57;29.93;;;2.50;99.90;;;;;;5023458;28;20181;-84
2022/01/26 06:09:37;;;;;;;146.77;32.23;;;2.50;99.90;;;;;;5042354;28;20166;-84
2022/01/26 06:12:03;;;;;;;126.83;30.47;;;2.50;99.90;;;;;;5048089;28;20205;-84
2022/01/26 06:14:29;;;;;;;135.90;31.17;;;2.50;99.90;;;;;;5039360;28;20229;-84
2022/01/26 06:16:54;;;;;;;131.90;31.30;;;2.40;99.90;;;;;;5052811;28;20174;-84
2022/01/26 06:19:20;;;;;;;141.57;31.27;;;2.50;99.90;;;;;;5026372;28;20197;-84
2022/01/26 06:21:45;;;;;;;131.30;31.17;;;2.40;99.90;;;;;;5022336;28;20544;-84
2022/01/26 06:24:11;;;;;;;133.87;30.97;;;2.40;99.90;;;;;;5022194;28;20178;-84
2022/01/26 06:26:37;;;;;;;131.20;30.00;;;2.40;99.90;;;;;;5022584;28;20188;-85
2022/01/26 06:29:03;;;;;;;141.37;31.23;;;2.40;99.90;;;;;;5022022;28;20201;-84
2022/01/26 06:31:28;;;;;;;143.70;30.23;;;2.40;99.90;;;;;;5039199;28;20706;-84
2022/01/26 06:33:56;;;;;;;137.03;31.70;;;2.40;99.90;;;;;;5039381;28;20178;-83
2022/01/26 06:36:22;;;;;;;152.33;32.10;;;2.40;99.90;;;;;;5038349;28;20170;-84
2022/01/26 06:38:48;;;;;;;147.77;33.00;;;2.40;99.90;;;;;;5021445;28;20196;-84
2022/01/26 06:41:22;;;;;;;154.90;31.67;;;2.30;99.90;;;;;;5038440;28;20170;-84
2022/01/26 06:43:52;;;;;;;133.57;31.37;;;2.30;99.90;;;;;;5022205;28;20266;-84
2022/01/26 06:46:24;;;;;;;147.03;32.77;;;2.30;99.90;;;;;;5039027;28;20181;-84
2022/01/26 06:49:28;;;;;;;145.90;31.43;;;2.30;99.90;;;;;;5019928;28;20202;-84
2022/01/26 06:51:44;;;;;;;144.03;32.33;;;2.40;99.90;;;;;;5036673;28;20759;-84
2022/01/26 06:54:10;;;;;;;134.70;30.13;;;2.30;99.90;;;;;;5021373;28;20211;-84
2022/01/26 06:56:35;;;;;;;136.00;30.33;;;2.30;99.90;;;;;;5020790;28;20177;-84
2022/01/26 06:59:01;;;;;;;130.23;27.80;;;2.30;99.90;;;;;;5020334;28;20212;-83
2022/01/26 07:01:26;;;;;;;144.60;31.60;;;2.20;99.90;;;;;;5020023;28;20178;-84
2022/01/26 07:03:52;;;;;;;141.87;31.97;;;2.20;99.90;;;;;;5019789;28;20178;-84
2022/01/26 07:06:17;;;;;;;131.37;30.03;;;2.20;99.90;;;;;;5019552;28;20251;-84
2022/01/26 07:08:44;;;;;;;148.80;31.90;;;2.20;99.90;;;;;;5037789;28;20194;-84
2022/01/26 07:11:09;;;;;;;124.87;30.70;;;2.20;99.90;;;;;;5017811;28;20681;-84
2022/01/26 07:13:35;;;;;;;145.70;32.00;;;2.20;99.90;;;;;;5034475;28;20205;-84
2022/01/26 07:21:28;;;;;;;127.60;28.83;;;2.30;99.90;;;;;;5034190;28;20180;-84
2022/01/26 07:23:56;;;;;;;126.13;28.47;;;2.20;99.90;;;;;;5016520;28;20264;-84
2022/01/26 07:26:26;;;;;;;113.43;25.70;;;2.20;99.90;;;;;;5016697;28;20178;-84
2022/01/26 07:28:52;;;;;;;113.63;27.53;;;2.20;99.90;;;;;;5016275;28;20201;-84
2022/01/26 07:31:18;;;;;;;108.67;26.60;;;2.20;99.90;;;;;;5034032;28;20571;-84
2022/01/26 07:33:43;;;;;;;104.00;24.53;;;2.20;99.90;;;;;;5016420;28;20547;-84
2022/01/26 07:36:09;;;;;;;109.20;25.67;;;2.30;99.90;;;;;;5034086;28;20776;-84
2022/01/26 07:38:35;;;;;;;102.93;23.57;;;2.20;99.90;;;;;;5017574;28;20192;-83
2022/01/26 07:41:01;;;;;;;109.33;26.43;;;2.30;99.90;;;;;;5016139;28;20192;-84
2022/01/26 07:43:26;;;;;;;115.87;26.87;;;2.30;99.90;;;;;;5015986;28;20654;-84
2022/01/26 07:45:52;;;;;;;109.83;23.90;;;2.30;99.90;;;;;;5034437;28;20303;-84
2022/01/26 07:48:17;;;;;;;112.43;27.20;;;2.30;99.90;;;;;;5033575;28;20204;-84
2022/01/26 07:50:44;;;;;;;104.60;25.30;;;2.40;99.90;;;;;;5033083;28;20173;-84
2022/01/26 07:53:14;;;;;;;102.37;26.07;;;2.40;99.90;;;;;;5033206;28;20185;-84
2022/01/26 07:55:40;;;;;;;114.47;26.90;;;2.40;99.90;;;;;;5015821;28;20169;-84
2022/01/26 07:58:08;;;;;;;111.77;26.93;;;2.40;99.90;;;;;;5015696;28;20193;-84
2022/01/26 08:00:34;;;;;;;110.67;25.83;;;2.40;99.90;;;;;;5014161;28;20190;-84
2022/01/26 08:03:00;;;;;;;125.43;28.27;;;2.40;99.90;;;;;;5031192;28;20219;-84
2022/01/26 08:05:25;;;;;;;120.13;26.40;;;2.50;99.90;;;;;;5015230;28;20184;-84
2022/01/26 08:07:51;;;;;;;109.37;27.43;;;2.50;99.90;;;;;;5032536;28;20254;-84
2022/01/26 08:10:17;;;;;;;120.13;28.53;;;2.50;99.90;;;;;;5014483;28;20180;-85
2022/01/26 08:12:42;;;;;;;125.63;30.20;;;2.50;99.90;;;;;;5033042;28;20213;-84
2022/01/26 08:15:08;;;;;;;127.17;29.20;;;2.40;99.90;;;;;;5015271;28;20197;-84
2022/01/26 08:17:35;;;;;;;144.27;30.60;;;2.40;99.90;;;;;;5014617;28;20198;-84
2022/01/26 08:20:04;;;;;;;126.53;29.20;;;2.50;99.90;;;;;;5015091;28;20194;-84
2022/01/26 08:22:30;;;;;;;118.60;29.87;;;2.50;99.90;;;;;;5014376;28;20185;-84
2022/01/26 08:24:55;;;;;;;126.83;29.57;;;2.50;99.90;;;;;;5031784;28;20793;-84
2022/01/26 08:27:23;;;;;;;120.43;30.50;;;2.50;99.90;;;;;;5032428;28;20189;-84
2022/01/26 08:29:56;;;;;;;127.23;30.73;;;2.60;99.90;;;;;;5014786;28;20689;-84
2022/01/26 08:32:23;;;;;;;125.57;29.07;;;2.50;99.90;;;;;;5014250;28;20287;-84
2022/01/26 08:34:48;;;;;;;129.23;29.43;;;2.60;99.90;;;;;;5014683;28;20240;-85
2022/01/26 08:37:14;;;;;;;140.73;31.30;;;2.60;99.90;;;;;;5014622;28;20581;-84
2022/01/26 08:39:40;;;;;;;117.67;28.33;;;2.60;99.90;;;;;;5015623;28;20196;-86
2022/01/26 08:42:06;;;;;;;128.67;30.60;;;2.60;99.90;;;;;;5032376;28;20248;-85
2022/01/26 08:44:34;;;;;;;125.60;28.97;;;2.60;99.90;;;;;;5033007;28;20178;-85
2022/01/26 08:47:00;;;;;;;125.00;30.20;;;2.60;99.90;;;;;;5014538;28;20178;-85
2022/01/26 08:49:27;;;;;;;128.83;30.20;;;2.60;99.90;;;;;;5014976;28;20666;-86
2022/01/26 08:51:53;;;;;;;137.87;30.77;;;2.70;99.90;;;;;;5031606;28;20186;-85
2022/01/26 08:54:22;;;;;;;127.80;31.93;;;2.60;99.90;;;;;;5014802;28;20169;-85
2022/01/26 08:56:49;;;;;;;148.60;32.33;;;2.60;99.90;;;;;;5014657;28;20202;-86
2022/01/26 08:59:16;;;;;;;139.27;33.70;;;2.60;99.90;;;;;;5014447;28;20209;-85
2022/01/26 09:01:42;;;;;;;144.67;34.50;;;2.50;99.90;;;;;;5035969;28;20182;-85
2022/01/26 09:04:07;;;;;;;134.23;30.63;;;2.50;99.90;;;;;;5033526;28;20515;-85
2022/01/26 09:06:38;;;;;;;129.30;29.73;;;2.60;99.90;;;;;;5032295;28;20173;-85
2022/01/26 09:09:07;;;;;;;140.83;33.33;;;2.60;99.90;;;;;;5032321;28;20239;-85
2022/01/26 09:11:35;;;;;;;150.57;33.20;;;2.60;99.90;;;;;;5032137;28;20193;-85
2022/01/26 09:14:07;;;;;;;129.60;31.17;;;2.60;99.90;;;;;;5014382;28;20174;-85
2022/01/26 09:16:33;;;;;;;139.03;31.70;;;2.60;99.90;;;;;;5032717;28;20169;-85
2022/01/26 09:19:06;;;;;;;169.07;33.90;;;2.60;99.90;;;;;;5032007;28;20190;-85
2022/01/26 09:21:31;;;;;;;144.70;33.50;;;2.50;99.90;;;;;;5031893;28;20263;-85
2022/01/26 09:23:57;;;;;;;163.67;35.93;;;2.60;99.90;;;;;;5014347;28;20233;-85
2022/01/26 09:26:22;;;;;;;152.30;34.37;;;2.60;99.90;;;;;;5013676;28;20237;-85
2022/01/26 09:28:48;;;;;;;140.20;32.33;;;2.60;99.90;;;;;;5031355;28;20285;-85
2022/01/26 09:31:14;;;;;;;160.10;35.60;;;2.50;99.90;;;;;;5014564;28;20287;-85
2022/01/26 09:33:39;;;;;;;160.43;35.07;;;2.60;99.90;;;;;;5031137;28;20309;-85
2022/01/26 09:36:05;;;;;;;145.63;34.13;;;2.60;99.90;;;;;;5013488;28;20561;-85
2022/01/26 09:38:30;;;;;;;154.43;33.40;;;2.60;99.90;;;;;;5029318;28;20634;-85
2022/01/26 09:40:56;;;;;;;147.80;33.13;;;2.60;99.90;;;;;;5015917;28;20202;-85
2022/01/26 09:43:22;;;;;;;168.63;35.43;;;2.60;99.90;;;;;;5019923;28;20184;-85
2022/01/26 09:45:48;;;;;;;164.07;35.73;;;2.60;99.90;;;;;;5032793;28;20166;-84
2022/01/26 09:48:14;;;;;;;169.40;36.90;;;2.70;99.90;;;;;;5031321;28;20197;-85
2022/01/26 09:50:44;;;;;;;163.67;36.87;;;2.70;99.90;;;;;;5013423;28;20174;-85
2022/01/26 09:53:15;;;;;;;163.00;34.87;;;2.70;99.90;;;;;;5013432;28;20205;-85
2022/01/26 09:55:42;;;;;;;171.37;35.50;;;2.80;99.90;;;;;;5014283;28;20174;-85
2022/01/26 09:58:08;;;;;;;163.33;35.57;;;2.70;99.90;;;;;;5032209;28;20571;-85
2022/01/26 10:00:34;;;;;;;171.33;37.20;;;2.70;99.90;;;;;;5070619;22;20247;-85
2022/01/26 10:03:02;;;;;;;174.50;37.43;;;2.70;99.90;;;;;;5041279;28;20170;-84
2022/01/26 10:05:42;;;;;;;168.63;37.93;;;2.70;99.90;;;;;;5035127;28;20207;-84
2022/01/26 10:18:56;;;;;;;184.13;37.23;;;2.80;99.90;;;;;;4951172;28;20189;-84
2022/01/26 10:21:23;;;;;;;180.20;36.17;;;2.80;99.90;;;;;;5021161;28;20236;-85
2022/01/26 10:23:49;;;;;;;178.30;38.13;;;2.90;99.90;;;;;;5021505;28;20178;-84
2022/01/26 10:26:19;;;;;;;166.20;37.10;;;2.90;99.90;;;;;;5021953;28;20550;-84
2022/01/26 10:29:04;;;;;;;179.83;37.27;;;2.90;99.90;;;;;;5023699;28;20159;-85
2022/01/26 10:31:39;;;;;;;185.27;36.93;;;2.80;99.90;;;;;;5023976;28;20625;-84
2022/01/26 10:34:22;;;;;;;184.93;37.27;;;2.90;99.90;;;;;;5030177;28;20227;-84
2022/01/26 10:36:50;;;;;;;171.30;38.50;;;2.90;99.90;;;;;;5022254;28;20603;-84
2022/01/26 10:39:30;;;;;;;166.07;35.47;;;2.90;99.90;;;;;;5023290;28;20170;-84
2022/01/26 10:42:01;;;;;;;171.93;36.87;;;2.90;99.90;;;;;;5026768;28;20173;-84
2022/01/26 10:44:41;;;;;;;170.93;37.03;;;2.90;99.90;;;;;;5033160;28;20708;-85
2022/01/26 10:47:08;;;;;;;176.10;37.70;;;2.90;99.90;;;;;;5029705;28;20198;-84
2022/01/26 10:52:54;;;;;;;176.23;37.83;;;3.00;99.90;;;;;;5034681;28;20197;-84
2022/01/26 10:55:07;;;;;;;170.83;38.17;;;3.00;99.90;;;;;;5029913;28;20193;-84
2022/01/26 10:57:35;;;;;;;172.73;36.27;;;2.90;99.90;;;;;;5017643;28;20170;-83
2022/01/26 11:00:03;;;;;;;174.40;36.37;;;3.00;99.90;;;;;;5019386;28;20200;-84
2022/01/26 11:02:32;;;;;;;167.20;37.07;;;3.00;99.90;;;;;;5019441;28;20178;-84
2022/01/26 11:04:58;;;;;;;175.83;38.00;;;3.00;99.90;;;;;;5019682;28;20173;-85
2022/01/26 11:07:36;;;;;;;190.50;39.50;;;3.00;99.90;;;;;;5019458;28;20198;-85
2022/01/26 11:10:07;;;;;;;155.57;33.60;;;3.00;99.90;;;;;;5019042;28;20182;-83
2022/01/26 11:12:33;;;;;;;175.03;37.63;;;3.00;99.90;;;;;;5019190;28;20213;-84
2022/01/26 11:15:22;;;;;;;173.73;36.13;;;3.00;99.90;;;;;;5018877;28;20658;-84
2022/01/26 11:17:48;;;;;;;178.13;37.57;;;3.00;99.90;;;;;;5018598;28;20230;-84
2022/01/26 11:20:34;;;;;;;177.90;38.50;;;3.00;99.90;;;;;;5018382;28;20642;-84
2022/01/26 11:23:02;;;;;;;171.63;35.30;;;3.00;99.90;;;;;;5019456;28;20236;-84
2022/01/26 11:25:38;;;;;;;171.50;37.20;;;3.00;99.90;;;;;;5018964;28;20750;-84
2022/01/26 11:28:21;;;;;;;178.07;36.50;;;3.10;99.90;;;;;;5018802;28;20533;-83
2022/01/26 11:30:47;;;;;;;183.83;37.67;;;3.10;99.90;;;;;;5019537;28;20178;-83
2022/01/26 11:33:16;;;;;;;177.93;38.10;;;3.10;99.90;;;;;;5019666;28;20210;-83
2022/01/26 11:35:45;;;;;;;174.40;37.10;;;3.10;99.90;;;;;;5019147;28;20222;-83
2022/01/26 11:47:19;;;;;;;174.47;36.53;;;3.10;99.90;;;;;;5038311;28;20256;-84
2022/01/26 11:49:46;;;;;;;182.73;38.50;;;3.10;99.90;;;;;;5020315;28;20181;-83
2022/01/26 11:52:23;;;;;;;190.10;37.83;;;3.10;99.90;;;;;;5018187;28;20695;-84
2022/01/26 11:54:57;;;;;;;166.97;35.20;;;3.10;99.90;;;;;;5019149;28;20180;-84
2022/01/26 11:57:38;;;;;;;172.73;34.70;;;3.10;99.90;;;;;;5019593;28;20166;-84
2022/01/26 12:00:09;;;;;;;166.20;34.63;;;3.10;99.90;;;;;;5018932;28;20185;-83
2022/01/26 12:05:17;;;;;;;166.33;36.60;;;3.10;99.90;;;;;;5038847;28;20193;-83
2022/01/26 12:07:47;;;;;;;187.33;36.50;;;3.10;99.90;;;;;;5021551;28;20169;-84
2022/01/26 12:10:30;;;;;;;158.90;33.43;;;3.00;99.90;;;;;;5019032;28;20181;-84
2022/01/26 12:13:16;;;;;;;181.63;36.23;;;3.10;99.90;;;;;;5018816;28;20197;-83
2022/01/26 12:15:54;;;;;;;156.70;34.50;;;3.10;99.90;;;;;;5018310;28;20205;-84
2022/01/26 12:19:13;;;;;;;168.67;36.53;;;3.10;99.90;;;;;;5021062;28;20174;-84
2022/01/26 12:36:01;;;;;;;172.87;35.87;;;3.30;99.90;;;;;;5035579;28;20197;-83
2022/01/26 12:43:53;;;;;;;174.10;33.73;;;3.30;99.90;;;;;;5033784;28;20244;-83
2022/01/26 12:46:21;;;;;;;170.90;35.87;;;3.30;99.90;;;;;;5015875;28;20719;-83
2022/01/26 12:48:53;;;;;;;163.73;34.57;;;3.30;99.90;;;;;;5016696;28;20177;-83
2022/01/26 12:51:19;;;;;;;153.90;33.13;;;3.30;99.90;;;;;;5015944;28;20190;-83
2022/01/26 12:53:55;;;;;;;164.20;35.47;;;3.20;99.90;;;;;;5016165;28;20182;-84
2022/01/26 12:56:25;;;;;;;166.33;37.83;;;3.30;99.90;;;;;;5034212;28;20201;-83
2022/01/26 12:59:18;;;;;;;170.67;35.53;;;3.30;99.90;;;;;;5015871;28;20159;-83
2022/01/26 13:01:45;;;;;;;171.63;34.93;;;3.30;99.90;;;;;;5015948;28;20206;-83
2022/01/26 13:04:13;;;;;;;166.83;36.07;;;3.30;99.90;;;;;;5019617;28;20273;-84
2022/01/26 13:06:47;;;;;;;154.20;34.73;;;3.30;99.90;;;;;;5018769;28;20201;-83
2022/01/26 13:09:26;;;;;;;160.53;33.83;;;3.30;99.90;;;;;;5019532;28;20173;-83
2022/01/26 13:11:57;;;;;;;152.77;33.27;;;3.30;99.90;;;;;;5018935;28;20209;-84
2022/01/26 13:14:28;;;;;;;153.20;33.37;;;3.30;99.90;;;;;;5019558;28;20544;-83
2022/01/26 13:18:02;;;;;;;149.07;34.80;;;3.30;99.90;;;;;;5020991;28;20675;-83
2022/01/26 13:31:35;;;;;;;133.83;31.10;;;3.40;99.90;;;;;;5036841;28;20717;-82
2022/01/26 13:36:32;;;;;;;140.33;32.57;;;3.30;99.90;;;;;;5036080;28;20192;-82
2022/01/26 13:39:12;;;;;;;149.10;32.63;;;3.40;99.90;;;;;;5016970;28;20177;-83
2022/01/26 13:42:13;;;;;;;136.43;32.07;;;3.40;99.90;;;;;;5016682;28;20205;-83
2022/01/26 13:47:55;;;;;;;132.77;32.37;;;3.40;99.90;;;;;;5033942;28;20196;-83
2022/01/26 13:52:52;;;;;;;141.57;32.20;;;3.40;99.90;;;;;;5034806;28;20237;-82
2022/01/26 14:00:38;;;;;;;141.77;31.97;;;3.50;99.90;;;;;;5036803;28;20210;-82
2022/01/26 14:03:06;;;;;;;132.93;33.27;;;3.50;99.90;;;;;;5018040;28;20188;-82
2022/01/26 14:05:32;;;;;;;137.17;31.37;;;3.50;99.90;;;;;;5019682;28;20202;-82
2022/01/26 14:07:57;;;;;;;127.60;30.20;;;3.50;99.90;;;;;;5018590;28;20178;-82
2022/01/26 14:10:24;;;;;;;130.60;29.00;;;3.50;99.90;;;;;;5019049;28;20645;-82
2022/01/26 14:12:50;;;;;;;130.73;29.60;;;3.60;99.90;;;;;;5019449;28;20218;-82
2022/01/26 14:15:23;;;;;;;124.87;30.47;;;3.50;99.90;;;;;;5020007;28;20194;-83
2022/01/26 14:25:30;;;;;;;119.53;29.67;;;3.50;99.90;;;;;;5042552;28;20193;-82
2022/01/26 14:28:01;;;;;;;120.80;30.80;;;3.60;99.90;;;;;;5026208;28;20206;-82
2022/01/26 15:31:25;;;;;;;111.83;27.80;;;3.60;99.90;;;;;;5042241;28;20234;-83
2022/01/26 16:05:32;;;;;;;111.80;27.10;;;3.60;99.90;;;;;;5010000;28;20210;-76
2022/01/26 16:21:21;;;;;;;105.10;25.80;;;3.50;99.90;;;;;;5033618;28;20162;-76
2022/01/26 17:37:48;;;;;;;103.47;26.07;;;3.40;99.90;;;;;;5032434;28;20669;-76
2022/01/26 18:15:36;;;;;;;111.80;27.07;;;3.50;99.90;;;;;;5036380;28;20335;-78
2022/01/26 18:27:06;;;;;;;102.97;25.10;;;3.50;99.90;;;;;;5035659;28;20280;-77
2022/01/26 18:50:06;;;;;;;98.50;25.57;;;3.50;99.90;;;;;;5036108;28;20625;-78
2022/01/26 18:52:32;;;;;;;114.67;27.80;;;3.40;99.90;;;;;;5017297;28;20297;-78
2022/01/26 18:54:58;;;;;;;101.00;28.10;;;3.40;99.90;;;;;;5018158;28;20253;-78
2022/01/26 18:57:24;;;;;;;113.40;27.50;;;3.50;99.90;;;;;;5017520;28;20212;-78
2022/01/26 18:59:50;;;;;;;100.37;26.93;;;3.40;99.90;;;;;;5017878;28;20178;-77
2022/01/26 19:02:15;;;;;;;103.30;26.23;;;3.40;99.90;;;;;;5017207;28;20193;-78
2022/01/26 19:04:45;;;;;;;98.57;26.30;;;3.40;99.90;;;;;;5017388;28;20635;-77
2022/01/26 19:07:11;;;;;;;108.10;27.87;;;3.40;99.90;;;;;;5017130;28;20195;-78
2022/01/26 19:09:43;;;;;;;106.20;28.07;;;3.40;99.90;;;;;;5018378;28;20189;-77
2022/01/26 19:12:12;;;;;;;115.30;28.30;;;3.50;99.90;;;;;;5017328;28;20205;-77
2022/01/26 19:14:42;;;;;;;107.37;28.07;;;3.40;99.90;;;;;;5017754;28;20529;-78
2022/01/26 19:17:27;;;;;;;104.13;27.47;;;3.40;99.90;;;;;;5017261;28;20203;-78
2022/01/26 19:25:15;;;;;;;97.23;27.60;;;3.40;99.90;;;;;;5034420;28;20258;-77
2022/01/26 19:53:11;;;;;;;90.23;26.40;;;3.40;99.90;;;;;;5033671;28;20201;-77
2022/01/26 19:55:37;;;;;;;108.20;26.07;;;3.40;99.90;;;;;;5016169;28;20613;-76
2022/01/26 19:58:07;;;;;;;98.70;24.37;;;3.40;99.90;;;;;;5015779;28;20170;-76
2022/01/26 20:00:35;;;;;;;109.80;27.53;;;3.40;99.90;;;;;;5016042;28;20185;-78
2022/01/26 20:03:00;;;;;;;106.67;26.87;;;3.40;99.90;;;;;;5016317;28;20186;-78
2022/01/26 20:05:27;;;;;;;103.40;24.70;;;3.40;99.90;;;;;;5016620;28;20685;-78
2022/01/26 20:08:00;;;;;;;92.27;25.40;;;3.40;99.90;;;;;;5015771;28;20170;-77
2022/01/26 20:10:30;;;;;;;107.87;28.63;;;3.40;99.90;;;;;;5015968;28;20698;-77
2022/01/26 20:13:04;;;;;;;95.57;25.03;;;3.40;99.90;;;;;;5015401;28;20691;-77
2022/01/26 20:15:30;;;;;;;89.50;26.30;;;3.40;99.90;;;;;;5015756;28;20189;-77